Autodesk Gross Margin 2006-2021 | ADSK

Current and historical gross margin for Autodesk (ADSK) over the last 10 years. The current gross profit margin for Autodesk as of July 31, 2021 is %.
Autodesk Gross Margin Historical Data
Date TTM Revenue TTM Gross Profit Gross Margin
2021-07-31 $4.04B $3.67B 90.82%
2021-04-30 $3.89B $3.55B 91.11%
2021-01-31 $3.79B $3.45B 91.13%
2020-10-31 $3.65B $3.32B 90.99%
2020-07-31 $3.54B $3.22B 90.79%
2020-04-30 $3.43B $3.10B 90.51%
2020-01-31 $3.28B $2.95B 90.05%
2019-10-31 $3.11B $2.79B 89.72%
2019-07-31 $2.93B $2.62B 89.36%
2019-04-30 $2.75B $2.44B 89.00%
2019-01-31 $2.57B $2.28B 88.87%
2018-10-31 $2.39B $2.11B 88.19%
2018-07-31 $2.24B $1.95B 87.19%
2018-04-30 $2.13B $1.84B 86.30%
2018-01-31 $2.06B $1.75B 85.27%
2017-10-31 $1.98B $1.67B 84.21%
2017-07-31 $1.96B $1.64B 83.75%
2017-04-30 $2.01B $1.68B 83.65%
2017-01-31 $2.03B $1.69B 83.17%
2016-10-31 $2.20B $1.85B 83.92%
2016-07-31 $2.31B $1.95B 84.29%
2016-04-30 $2.37B $2.00B 84.35%
2016-01-31 $2.51B $2.13B 85.19%
2015-10-31 $2.52B $2.16B 85.49%
2015-07-31 $2.54B $2.18B 85.79%
2015-04-30 $2.57B $2.21B 86.13%
2015-01-31 $2.51B $2.17B 86.35%
2014-10-31 $2.44B $2.11B 86.65%
2014-07-31 $2.37B $2.07B 87.10%
2014-04-30 $2.30B $2.01B 87.55%
2014-01-31 $2.27B $2.00B 87.95%
2013-10-31 $2.29B $2.03B 88.49%
2013-07-31 $2.29B $2.03B 88.85%
2013-04-30 $2.29B $2.05B 89.23%
2013-01-31 $2.31B $2.07B 89.67%
2012-10-31 $2.30B $2.06B 89.82%
2012-07-31 $2.30B $2.06B 89.73%
2012-04-30 $2.28B $2.04B 89.76%
2012-01-31 $2.22B $1.99B 89.71%
2011-10-31 $2.15B $1.93B 89.77%
2011-07-31 $2.08B $1.87B 89.95%
2011-04-30 $2.01B $1.81B 89.98%
2011-01-31 $1.95B $1.75B 89.81%
2010-10-31 $1.88B $1.69B 89.69%
2010-07-31 $1.82B $1.63B 89.57%
2010-04-30 $1.76B $1.57B 89.17%
2010-01-31 $1.71B $1.52B 88.86%
2009-10-31 $1.75B $1.55B 88.79%
2009-07-31 $1.94B $1.73B 89.47%
2009-04-30 $2.14B $1.93B 90.01%
2009-01-31 $2.32B $2.10B 90.50%
2008-10-31 $2.43B $2.20B 90.80%
2008-07-31 $2.36B $2.14B 90.62%
2008-04-30 $2.26B $2.05B 90.58%
2008-01-31 $2.17B $1.96B 90.42%
2007-10-31 $2.07B $1.86B 89.81%
2007-07-31 $1.99B $1.77B 89.14%
2007-04-30 $1.91B $1.69B 88.50%
2007-01-31 $1.84B $1.62B 88.21%
2006-10-31 $1.77B $1.56B 88.51%
2006-07-31 $1.69B $1.50B 88.77%
2006-04-30 $1.62B $1.44B 88.94%
2006-01-31 $1.54B $1.37B 88.82%
2005-10-31 $1.48B $1.30B 88.14%
Sector Industry Market Cap Revenue
Computer and Technology Computer Software $63.906B $3.790B
Autodesk, Inc., is a leader in 3D design, engineering and entertainment software. Since its introduction of AutoCAD software in 1982, Autodesk continues to develop the broadest portfolio of 3D software for global markets. Customers across the manufacturing, architecture, building, construction, and media and entertainment industries-including the last 19 Academy Award winners for Best Visual Effects-use Autodesk software to design, visualize, and simulate their ideas before they're ever built or created. From blockbuster visual effects and buildings that create their own energy, to electric cars and the batteries that power them, the work of our 3D software customers is everywhere you look. Through their apps for iPhone, iPad, iPod, and Android, they're also making design technology accessible to professional designers and amateur designers, homeowners, students, and casual creators - anyone who wants to create and share their ideas with the world.
Stock Name Country Market Cap PE Ratio
Microsoft (MSFT) United States $2293.695B 38.30
Adobe (ADBE) United States $316.858B 68.29
Salesforce, Inc (CRM) United States $254.892B 76.13
Oracle (ORCL) United States $238.906B 20.63
SAP SE (SAP) Germany $177.961B 22.63
Intuit (INTU) United States $156.449B 76.38
Dassault Systemes SA (DASTY) France $79.473B 69.78
VMware (VMW) United States $58.579B 27.54
Synopsys (SNPS) United States $51.146B 69.87
Cadence Design Systems (CDNS) United States $46.391B 64.96
ANSYS (ANSS) United States $32.676B 65.70
SS&C Technologies Holdings (SSNC) United States $18.141B 16.26
Nuance Communications (NUAN) United States $17.377B 153.47
PTC (PTC) United States $14.731B 51.43
Open Text (OTEX) Canada $14.256B 16.24
Citrix Systems (CTXS) United States $13.784B 32.44
Pegasystems (PEGA) United States $10.749B 0.00
Manhattan Associates (MANH) United States $10.124B 107.89
Aspen Technology (AZPN) United States $8.597B 38.15
Trend Micro (TMICY) Japan $8.141B 30.45
Descartes Systems Group (DSGX) Canada $6.970B 99.24
MicroStrategy (MSTR) United States $6.170B 114.47
BlackBerry (BB) Canada $5.761B 254.00
Cornerstone OnDemand (CSOD) United States $3.820B 22.18
ACI Worldwide (ACIW) United States $3.744B 21.83
CommVault Systems (CVLT) United States $3.594B 93.29
Blackbaud (BLKB) United States $3.321B 56.61
Verint Systems (VRNT) United States $2.928B 21.22
Progress Software (PRGS) United States $2.021B 15.61
Bottomline Technologies (EPAY) United States $1.861B 177.30
QAD (QADB) United States $1.828B 120.83
PROS Holdings (PRO) United States $1.762B 0.00
Sapiens (SPNS) Israel $1.544B 27.64
Canaan (CAN) China $1.227B 0.00
OptimizeRx (OPRX) United States $1.225B 631.91
Avid Technology (AVID) United States $1.204B 30.00
Magic Software Enterprises (MGIC) Israel $1.022B 24.81
Simulations Plus (SLP) United States $0.888B 77.39
American Software (AMSWA) United States $0.835B 89.57
Icad Inc (ICAD) United States $0.259B 0.00
Smith Micro Software (SMSI) United States $0.253B 0.00
ServiceSource (SREV) United States $0.134B 0.00
Park City (PCYG) United States $0.103B 48.27
Neonode (NEON) Sweden $0.067B 0.00
BSQUARE (BSQR) United States $0.050B 0.00
NetSol Technologies (NTWK) United States $0.044B 17.73
GSE Systems (GVP) United States $0.028B 0.00